sensor_id;sensor_type;location;lat;lon;timestamp;pressure;altitude;pressure_sealevel;temperature;humidity
13705;BME280;6924;52.122;9.952;2022-08-01T00:00:08;100326.56;;;19.81;100.00
13705;BME280;6924;52.122;9.952;2022-08-01T00:02:34;100323.25;;;19.79;100.00
13705;BME280;6924;52.122;9.952;2022-08-01T00:05:01;100326.56;;;19.81;100.00
13705;BME280;6924;52.122;9.952;2022-08-01T00:07:27;100331.03;;;19.78;100.00
13705;BME280;6924;52.122;9.952;2022-08-01T00:09:54;100330.22;;;19.78;100.00
13705;BME280;6924;52.122;9.952;2022-08-01T00:12:20;100331.78;;;19.75;100.00
13705;BME280;6924;52.122;9.952;2022-08-01T00:14:47;100335.50;;;19.76;100.00
13705;BME280;6924;52.122;9.952;2022-08-01T00:17:14;100333.91;;;19.78;100.00
13705;BME280;6924;52.122;9.952;2022-08-01T00:19:41;100329.31;;;19.74;100.00
13705;BME280;6924;52.122;9.952;2022-08-01T00:22:08;100331.75;;;19.72;100.00
13705;BME280;6924;52.122;9.952;2022-08-01T00:24:34;100328.44;;;19.70;100.00
13705;BME280;6924;52.122;9.952;2022-08-01T00:27:01;100323.84;;;19.69;100.00
13705;BME280;6924;52.122;9.952;2022-08-01T00:29:27;100318.50;;;19.67;100.00
13705;BME280;6924;52.122;9.952;2022-08-01T00:31:54;100325.06;;;19.68;100.00
13705;BME280;6924;52.122;9.952;2022-08-01T00:34:21;100320.63;;;19.70;100.00
13705;BME280;6924;52.122;9.952;2022-08-01T00:36:48;100322.31;;;19.71;100.00
13705;BME280;6924;52.122;9.952;2022-08-01T00:39:14;100321.47;;;19.71;100.00
13705;BME280;6924;52.122;9.952;2022-08-01T00:41:41;100318.22;;;19.72;100.00
13705;BME280;6924;52.122;9.952;2022-08-01T00:44:07;100318.22;;;19.72;100.00
13705;BME280;6924;52.122;9.952;2022-08-01T00:46:33;100322.34;;;19.75;100.00
13705;BME280;6924;52.122;9.952;2022-08-01T00:49:02;100321.53;;;19.74;100.00
13705;BME280;6924;52.122;9.952;2022-08-01T00:51:30;100319.47;;;19.75;100.00
13705;BME280;6924;52.122;9.952;2022-08-01T00:53:57;100316.63;;;19.75;100.00
13705;BME280;6924;52.122;9.952;2022-08-01T00:56:25;100314.91;;;19.70;100.00
13705;BME280;6924;52.122;9.952;2022-08-01T00:58:53;100315.72;;;19.71;100.00
13705;BME280;6924;52.122;9.952;2022-08-01T01:01:20;100315.72;;;19.71;100.00
13705;BME280;6924;52.122;9.952;2022-08-01T01:03:47;100318.59;;;19.71;100.00
13705;BME280;6924;52.122;9.952;2022-08-01T01:06:21;100312.47;;;19.72;100.00
13705;BME280;6924;52.122;9.952;2022-08-01T01:08:58;100314.97;;;19.74;100.00
13705;BME280;6924;52.122;9.952;2022-08-01T01:11:32;100312.47;;;19.72;100.00
13705;BME280;6924;52.122;9.952;2022-08-01T01:14:05;100304.69;;;19.73;100.00
13705;BME280;6924;52.122;9.952;2022-08-01T01:16:37;100313.69;;;19.71;100.00
13705;BME280;6924;52.122;9.952;2022-08-01T01:19:10;100314.53;;;19.72;100.00
13705;BME280;6924;52.122;9.952;2022-08-01T01:22:05;100313.25;;;19.69;100.00
13705;BME280;6924;52.122;9.952;2022-08-01T01:24:39;100323.84;;;19.69;100.00
13705;BME280;6924;52.122;9.952;2022-08-01T01:27:18;100309.91;;;19.67;100.00
13705;BME280;6924;52.122;9.952;2022-08-01T01:29:51;100314.75;;;19.63;100.00
13705;BME280;6924;52.122;9.952;2022-08-01T01:32:23;100327.41;;;19.62;100.00
13705;BME280;6924;52.122;9.952;2022-08-01T01:34:54;100323.28;;;19.59;100.00
13705;BME280;6924;52.122;9.952;2022-08-01T01:37:24;100326.16;;;19.59;100.00
13705;BME280;6924;52.122;9.952;2022-08-01T01:39:52;100328.56;;;19.57;100.00
13705;BME280;6924;52.122;9.952;2022-08-01T01:42:20;100318.78;;;19.58;100.00
13705;BME280;6924;52.122;9.952;2022-08-01T01:44:49;100317.06;;;19.54;100.00
13705;BME280;6924;52.122;9.952;2022-08-01T01:47:17;100321.06;;;19.49;100.00
13705;BME280;6924;52.122;9.952;2022-08-01T01:49:46;100323.53;;;19.51;100.00
13705;BME280;6924;52.122;9.952;2022-08-01T01:52:15;100322.72;;;19.50;100.00
13705;BME280;6924;52.122;9.952;2022-08-01T01:54:46;100323.94;;;19.49;100.00
13705;BME280;6924;52.122;9.952;2022-08-01T01:57:14;100314.09;;;19.50;100.00
13705;BME280;6924;52.122;9.952;2022-08-01T01:59:41;100317.78;;;19.51;100.00
13705;BME280;6924;52.122;9.952;2022-08-01T02:02:11;100316.97;;;19.50;100.00
13705;BME280;6924;52.122;9.952;2022-08-01T02:04:40;100314.56;;;19.52;100.00
13705;BME280;6924;52.122;9.952;2022-08-01T02:07:09;100315.69;;;19.48;100.00
13705;BME280;6924;52.122;9.952;2022-08-01T02:09:37;100319.41;;;19.48;100.00
13705;BME280;6924;52.122;9.952;2022-08-01T02:12:06;100312.00;;;19.47;100.00
13705;BME280;6924;52.122;9.952;2022-08-01T02:14:34;100312.84;;;19.48;100.00
13705;BME280;6924;52.122;9.952;2022-08-01T02:17:01;100313.22;;;19.46;100.00
13705;BME280;6924;52.122;9.952;2022-08-01T02:19:30;100307.47;;;19.46;100.00
13705;BME280;6924;52.122;9.952;2022-08-01T02:22:01;100312.84;;;19.48;100.00
13705;BME280;6924;52.122;9.952;2022-08-01T02:24:35;100315.69;;;19.48;100.00
13705;BME280;6924;52.122;9.952;2022-08-01T02:27:06;100321.06;;;19.49;100.00
13705;BME280;6924;52.122;9.952;2022-08-01T02:29:37;100316.53;;;19.48;100.00
13705;BME280;6924;52.122;9.952;2022-08-01T02:32:07;100311.16;;;19.47;100.00
13705;BME280;6924;52.122;9.952;2022-08-01T02:34:38;100319.34;;;19.45;100.00
13705;BME280;6924;52.122;9.952;2022-08-01T02:37:06;100318.91;;;19.43;100.00
13705;BME280;6924;52.122;9.952;2022-08-01T02:39:35;100322.13;;;19.41;100.00
13705;BME280;6924;52.122;9.952;2022-08-01T02:42:05;100319.28;;;19.41;100.00
13705;BME280;6924;52.122;9.952;2022-08-01T02:44:35;100324.19;;;19.40;100.00
13705;BME280;6924;52.122;9.952;2022-08-01T02:47:03;100329.47;;;19.38;100.00
13705;BME280;6924;52.122;9.952;2022-08-01T02:49:33;100338.81;;;19.35;100.00
13705;BME280;6924;52.122;9.952;2022-08-01T02:52:05;100332.72;;;19.37;100.00
13705;BME280;6924;52.122;9.952;2022-08-01T02:54:33;100333.94;;;19.36;100.00
13705;BME280;6924;52.122;9.952;2022-08-01T02:57:02;100320.41;;;19.36;100.00
13705;BME280;6924;52.122;9.952;2022-08-01T02:59:30;100337.16;;;19.34;100.00
13705;BME280;6924;52.122;9.952;2022-08-01T03:01:58;100337.16;;;19.34;100.00
13705;BME280;6924;52.122;9.952;2022-08-01T03:04:26;100337.63;;;19.36;100.00
13705;BME280;6924;52.122;9.952;2022-08-01T03:06:55;100334.69;;;19.33;100.00
13705;BME280;6924;52.122;9.952;2022-08-01T03:09:25;100343.28;;;19.33;100.00
13705;BME280;6924;52.122;9.952;2022-08-01T03:11:55;100344.03;;;19.30;100.00
13705;BME280;6924;52.122;9.952;2022-08-01T03:14:24;100351.38;;;19.27;100.00
13705;BME280;6924;52.122;9.952;2022-08-01T03:16:52;100345.03;;;19.18;100.00
13705;BME280;6924;52.122;9.952;2022-08-01T03:19:20;100347.59;;;19.23;100.00
13705;BME280;6924;52.122;9.952;2022-08-01T03:21:49;100352.53;;;19.23;100.00
13705;BME280;6924;52.122;9.952;2022-08-01T03:24:18;100359.06;;;19.23;100.00
13705;BME280;6924;52.122;9.952;2022-08-01T03:26:47;100362.22;;;19.18;100.00
13705;BME280;6924;52.122;9.952;2022-08-01T03:29:17;100355.75;;;19.21;100.00
13705;BME280;6924;52.122;9.952;2022-08-01T03:31:46;100349.19;;;19.20;100.00
13705;BME280;6924;52.122;9.952;2022-08-01T03:34:13;100355.16;;;19.12;100.00
13705;BME280;6924;52.122;9.952;2022-08-01T03:36:45;100353.50;;;19.11;100.00
13705;BME280;6924;52.122;9.952;2022-08-01T03:39:13;100351.44;;;19.11;100.00
13705;BME280;6924;52.122;9.952;2022-08-01T03:41:42;100350.25;;;19.12;100.00
13705;BME280;6924;52.122;9.952;2022-08-01T03:44:14;100363.22;;;19.06;100.00
13705;BME280;6924;52.122;9.952;2022-08-01T03:46:43;100363.91;;;18.99;100.00
13705;BME280;6924;52.122;9.952;2022-08-01T03:49:14;100362.72;;;19.01;100.00
13705;BME280;6924;52.122;9.952;2022-08-01T03:51:44;100367.59;;;19.00;100.00
13705;BME280;6924;52.122;9.952;2022-08-01T03:54:14;100360.66;;;19.01;100.00
13705;BME280;6924;52.122;9.952;2022-08-01T03:56:43;100365.94;;;18.99;100.00
13705;BME280;6924;52.122;9.952;2022-08-01T03:59:12;100368.28;;;18.93;100.00
13705;BME280;6924;52.122;9.952;2022-08-01T04:01:40;100376.50;;;18.95;100.00
13705;BME280;6924;52.122;9.952;2022-08-01T04:04:06;100375.22;;;18.92;100.00
13705;BME280;6924;52.122;9.952;2022-08-01T04:06:37;100370.69;;;18.91;100.00
13705;BME280;6924;52.122;9.952;2022-08-01T04:09:03;100378.09;;;18.92;100.00
13705;BME280;6924;52.122;9.952;2022-08-01T04:11:30;100391.19;;;18.93;100.00
13705;BME280;6924;52.122;9.952;2022-08-01T04:13:57;100390.97;;;18.83;100.00
13705;BME280;6924;52.122;9.952;2022-08-01T04:16:25;100385.88;;;18.76;100.00
13705;BME280;6924;52.122;9.952;2022-08-01T04:18:52;100393.75;;;18.79;100.00
13705;BME280;6924;52.122;9.952;2022-08-01T04:21:21;100389.63;;;18.61;100.00
13705;BME280;6924;52.122;9.952;2022-08-01T04:23:48;100393.78;;;18.63;100.00
13705;BME280;6924;52.122;9.952;2022-08-01T04:26:17;100402.38;;;18.63;100.00
13705;BME280;6924;52.122;9.952;2022-08-01T04:28:45;100405.41;;;18.70;100.00
13705;BME280;6924;52.122;9.952;2022-08-01T04:31:16;100410.84;;;18.75;100.00
13705;BME280;6924;52.122;9.952;2022-08-01T04:33:47;100410.97;;;18.79;100.00
13705;BME280;6924;52.122;9.952;2022-08-01T04:36:17;100412.69;;;18.84;100.00
13705;BME280;6924;52.122;9.952;2022-08-01T04:38:48;100409.06;;;18.87;100.00
13705;BME280;6924;52.122;9.952;2022-08-01T04:41:17;100419.25;;;18.84;100.00
13705;BME280;6924;52.122;9.952;2022-08-01T04:43:44;100423.78;;;18.85;100.00
13705;BME280;6924;52.122;9.952;2022-08-01T04:46:13;100430.06;;;18.75;100.00
13705;BME280;6924;52.122;9.952;2022-08-01T04:48:40;100427.97;;;18.72;100.00
13705;BME280;6924;52.122;9.952;2022-08-01T04:51:13;100435.34;;;18.73;100.00
13705;BME280;6924;52.122;9.952;2022-08-01T04:53:41;100439.84;;;18.74;100.00
13705;BME280;6924;52.122;9.952;2022-08-01T04:56:08;100447.25;;;18.75;100.00
13705;BME280;6924;52.122;9.952;2022-08-01T04:58:34;100441.97;;;18.77;100.00
13705;BME280;6924;52.122;9.952;2022-08-01T05:01:01;100438.38;;;18.80;100.00
13705;BME280;6924;52.122;9.952;2022-08-01T05:03:27;100438.47;;;18.84;100.00
13705;BME280;6924;52.122;9.952;2022-08-01T05:05:54;100445.03;;;18.84;100.00
13705;BME280;6924;52.122;9.952;2022-08-01T05:08:21;100449.13;;;18.83;100.00
13705;BME280;6924;52.122;9.952;2022-08-01T05:10:48;100448.81;;;18.88;100.00
13705;BME280;6924;52.122;9.952;2022-08-01T05:13:14;100449.72;;;18.92;100.00
13705;BME280;6924;52.122;9.952;2022-08-01T05:15:41;100445.19;;;18.91;100.00
13705;BME280;6924;52.122;9.952;2022-08-01T05:18:08;100439.47;;;18.91;100.00
13705;BME280;6924;52.122;9.952;2022-08-01T05:20:34;100459.25;;;18.96;100.00
13705;BME280;6924;52.122;9.952;2022-08-01T05:23:02;100455.53;;;18.96;100.00
13705;BME280;6924;52.122;9.952;2022-08-01T05:25:29;100457.66;;;18.99;100.00
13705;BME280;6924;52.122;9.952;2022-08-01T05:27:56;100455.63;;;18.99;100.00
13705;BME280;6924;52.122;9.952;2022-08-01T05:30:22;100461.81;;;19.02;100.00
13705;BME280;6924;52.122;9.952;2022-08-01T05:32:49;100464.31;;;19.03;100.00
13705;BME280;6924;52.122;9.952;2022-08-01T05:35:15;100465.59;;;19.06;100.00
13705;BME280;6924;52.122;9.952;2022-08-01T05:37:41;100465.22;;;19.07;100.00
13705;BME280;6924;52.122;9.952;2022-08-01T05:40:09;100461.13;;;19.08;100.00
13705;BME280;6924;52.122;9.952;2022-08-01T05:42:36;100468.16;;;19.11;100.00
13705;BME280;6924;52.122;9.952;2022-08-01T05:45:04;100464.09;;;19.12;100.00
13705;BME280;6924;52.122;9.952;2022-08-01T05:47:30;100457.16;;;19.13;100.00
13705;BME280;6924;52.122;9.952;2022-08-01T05:49:57;100469.06;;;19.15;100.00
13705;BME280;6924;52.122;9.952;2022-08-01T05:52:23;100458.50;;;19.19;100.00
13705;BME280;6924;52.122;9.952;2022-08-01T05:54:50;100465.16;;;19.23;100.00
13705;BME280;6924;52.122;9.952;2022-08-01T05:57:16;100458.66;;;19.26;100.00
13705;BME280;6924;52.122;9.952;2022-08-01T05:59:44;100450.06;;;19.26;100.00
13705;BME280;6924;52.122;9.952;2022-08-01T06:02:10;100460.03;;;19.32;100.00
13705;BME280;6924;52.122;9.952;2022-08-01T06:04:37;100462.44;;;19.30;100.00
13705;BME280;6924;52.122;9.952;2022-08-01T06:07:03;100468.63;;;19.32;100.00
13705;BME280;6924;52.122;9.952;2022-08-01T06:09:29;100460.47;;;19.34;100.00
13705;BME280;6924;52.122;9.952;2022-08-01T06:11:56;100471.59;;;19.36;100.00
13705;BME280;6924;52.122;9.952;2022-08-01T06:14:23;100474.06;;;19.37;100.00
13705;BME280;6924;52.122;9.952;2022-08-01T06:16:50;100480.56;;;19.34;100.00
13705;BME280;6924;52.122;9.952;2022-08-01T06:19:17;100481.75;;;19.33;100.00
13705;BME280;6924;52.122;9.952;2022-08-01T06:21:43;100486.06;;;19.24;100.00
13705;BME280;6924;52.122;9.952;2022-08-01T06:24:10;100489.31;;;18.87;100.00
13705;BME280;6924;52.122;9.952;2022-08-01T06:26:36;100488.13;;;18.72;100.00
13705;BME280;6924;52.122;9.952;2022-08-01T06:29:03;100483.69;;;18.74;100.00
13705;BME280;6924;52.122;9.952;2022-08-01T06:31:29;100492.63;;;18.73;100.00
13705;BME280;6924;52.122;9.952;2022-08-01T06:33:57;100491.00;;;18.72;100.00
13705;BME280;6924;52.122;9.952;2022-08-01T06:36:24;100501.22;;;18.73;100.00
13705;BME280;6924;52.122;9.952;2022-08-01T06:38:50;100500.59;;;18.64;100.00
13705;BME280;6924;52.122;9.952;2022-08-01T06:41:17;100497.81;;;18.67;100.00
13705;BME280;6924;52.122;9.952;2022-08-01T06:43:43;100496.63;;;18.68;100.00
13705;BME280;6924;52.122;9.952;2022-08-01T06:46:10;100495.50;;;18.73;100.00
13705;BME280;6924;52.122;9.952;2022-08-01T06:48:36;100502.16;;;18.77;100.00
13705;BME280;6924;52.122;9.952;2022-08-01T06:51:06;100501.44;;;18.80;100.00
13705;BME280;6924;52.122;9.952;2022-08-01T06:53:38;100500.13;;;18.77;100.00
13705;BME280;6924;52.122;9.952;2022-08-01T06:56:06;100493.75;;;18.84;100.00
13705;BME280;6924;52.122;9.952;2022-08-01T06:58:33;100500.56;;;18.95;100.00
13705;BME280;6924;52.122;9.952;2022-08-01T07:01:00;100505.25;;;19.04;100.00
13705;BME280;6924;52.122;9.952;2022-08-01T07:03:27;100497.66;;;19.11;100.00
13705;BME280;6924;52.122;9.952;2022-08-01T07:05:53;100505.16;;;19.16;100.00
13705;BME280;6924;52.122;9.952;2022-08-01T07:08:22;100505.31;;;19.23;100.00
13705;BME280;6924;52.122;9.952;2022-08-01T07:10:48;100505.81;;;19.29;100.00
13705;BME280;6924;52.122;9.952;2022-08-01T07:13:18;100511.56;;;19.29;100.00
13705;BME280;6924;52.122;9.952;2022-08-01T07:15:49;100508.00;;;19.35;100.00
13705;BME280;6924;52.122;9.952;2022-08-01T07:18:15;100503.66;;;19.41;100.00
13705;BME280;6924;52.122;9.952;2022-08-01T07:20:42;100504.56;;;19.46;100.00
13705;BME280;6924;52.122;9.952;2022-08-01T07:23:08;100509.97;;;19.51;100.00
13705;BME280;6924;52.122;9.952;2022-08-01T07:25:36;100514.22;;;19.57;100.00
13705;BME280;6924;52.122;9.952;2022-08-01T07:28:03;100500.41;;;19.63;100.00
13705;BME280;6924;52.122;9.952;2022-08-01T07:30:29;100501.69;;;19.65;100.00
13705;BME280;6924;52.122;9.952;2022-08-01T07:32:56;100503.34;;;19.66;100.00
13705;BME280;6924;52.122;9.952;2022-08-01T07:35:22;100516.97;;;19.69;100.00
13705;BME280;6924;52.122;9.952;2022-08-01T07:37:49;100515.38;;;19.72;100.00
13705;BME280;6924;52.122;9.952;2022-08-01T07:40:16;100521.13;;;19.72;100.00
13705;BME280;6924;52.122;9.952;2022-08-01T07:42:45;100530.00;;;19.67;100.00
13705;BME280;6924;52.122;9.952;2022-08-01T07:45:12;100536.44;;;19.60;100.00
13705;BME280;6924;52.122;9.952;2022-08-01T07:47:38;100542.41;;;19.16;100.00
13705;BME280;6924;52.122;9.952;2022-08-01T07:50:06;100543.94;;;18.78;100.00
13705;BME280;6924;52.122;9.952;2022-08-01T07:52:33;100544.03;;;18.50;100.00
13705;BME280;6924;52.122;9.952;2022-08-01T07:55:00;100538.22;;;18.46;100.00
13705;BME280;6924;52.122;9.952;2022-08-01T07:57:26;100542.91;;;18.38;100.00
13705;BME280;6924;52.122;9.952;2022-08-01T07:59:54;100543.13;;;18.46;100.00
13705;BME280;6924;52.122;9.952;2022-08-01T08:02:21;100544.75;;;18.63;100.00
13705;BME280;6924;52.122;9.952;2022-08-01T08:04:47;100552.16;;;18.64;100.00
13705;BME280;6924;52.122;9.952;2022-08-01T08:07:14;100553.56;;;18.70;100.00
13705;BME280;6924;52.122;9.952;2022-08-01T08:09:40;100557.44;;;18.77;100.00
13705;BME280;6924;52.122;9.952;2022-08-01T08:12:07;100555.16;;;18.83;100.00
13705;BME280;6924;52.122;9.952;2022-08-01T08:14:33;100560.69;;;18.92;100.00
13705;BME280;6924;52.122;9.952;2022-08-01T08:17:01;100568.41;;;18.91;100.00
13705;BME280;6924;52.122;9.952;2022-08-01T08:19:28;100560.84;;;18.99;100.00
13705;BME280;6924;52.122;9.952;2022-08-01T08:21:54;100559.25;;;19.02;100.00
13705;BME280;6924;52.122;9.952;2022-08-01T08:24:21;100562.03;;;18.98;100.00
13705;BME280;6924;52.122;9.952;2022-08-01T08:26:50;100569.50;;;19.03;100.00
13705;BME280;6924;52.122;9.952;2022-08-01T08:29:18;100569.31;;;19.11;100.00
13705;BME280;6924;52.122;9.952;2022-08-01T08:31:45;100553.88;;;19.16;100.00
13705;BME280;6924;52.122;9.952;2022-08-01T08:34:13;100560.59;;;19.24;100.00
13705;BME280;6924;52.122;9.952;2022-08-01T08:36:39;100568.53;;;19.30;100.00
13705;BME280;6924;52.122;9.952;2022-08-01T08:39:06;100566.28;;;19.39;100.00
13705;BME280;6924;52.122;9.952;2022-08-01T08:41:33;100566.00;;;19.45;100.00
13705;BME280;6924;52.122;9.952;2022-08-01T08:44:00;100571.91;;;19.52;100.00
13705;BME280;6924;52.122;9.952;2022-08-01T08:46:27;100578.25;;;19.61;100.00
13705;BME280;6924;52.122;9.952;2022-08-01T08:48:55;100584.94;;;19.69;100.00
13705;BME280;6924;52.122;9.952;2022-08-01T08:51:23;100582.16;;;19.53;100.00
13705;BME280;6924;52.122;9.952;2022-08-01T08:53:53;100581.94;;;19.61;100.00
13705;BME280;6924;52.122;9.952;2022-08-01T08:56:21;100587.66;;;19.61;100.00
13705;BME280;6924;52.122;9.952;2022-08-01T08:58:50;100590.53;;;19.61;100.00
13705;BME280;6924;52.122;9.952;2022-08-01T09:01:17;100596.28;;;19.61;100.00
13705;BME280;6924;52.122;9.952;2022-08-01T09:03:44;100592.03;;;19.55;100.00
13705;BME280;6924;52.122;9.952;2022-08-01T09:06:11;100595.91;;;19.63;100.00
13705;BME280;6924;52.122;9.952;2022-08-01T09:08:38;100596.38;;;19.65;100.00
13705;BME280;6924;52.122;9.952;2022-08-01T09:11:05;100604.22;;;19.68;100.00
13705;BME280;6924;52.122;9.952;2022-08-01T09:13:32;100606.25;;;19.68;100.00
13705;BME280;6924;52.122;9.952;2022-08-01T09:15:58;100614.53;;;19.69;100.00
13705;BME280;6924;52.122;9.952;2022-08-01T09:18:27;100611.00;;;19.76;100.00
13705;BME280;6924;52.122;9.952;2022-08-01T09:21:11;100606.22;;;19.84;100.00
13705;BME280;6924;52.122;9.952;2022-08-01T09:23:42;100619.53;;;19.92;100.00
13705;BME280;6924;52.122;9.952;2022-08-01T09:26:10;100618.03;;;19.98;100.00
13705;BME280;6924;52.122;9.952;2022-08-01T09:28:37;100621.25;;;19.96;100.00
13705;BME280;6924;52.122;9.952;2022-08-01T09:31:06;100622.63;;;19.83;100.00
13705;BME280;6924;52.122;9.952;2022-08-01T09:33:53;100630.03;;;19.68;100.00
13705;BME280;6924;52.122;9.952;2022-08-01T09:36:21;100633.09;;;19.75;100.00
13705;BME280;6924;52.122;9.952;2022-08-01T09:38:53;100634.00;;;19.79;100.00
13705;BME280;6924;52.122;9.952;2022-08-01T09:41:28;100640.44;;;19.57;100.00
13705;BME280;6924;52.122;9.952;2022-08-01T09:43:55;100637.88;;;19.52;100.00
13705;BME280;6924;52.122;9.952;2022-08-01T09:46:22;100634.03;;;19.64;100.00
13705;BME280;6924;52.122;9.952;2022-08-01T09:48:59;100641.81;;;19.63;100.00
13705;BME280;6924;52.122;9.952;2022-08-01T09:51:31;100641.53;;;19.68;100.00
13705;BME280;6924;52.122;9.952;2022-08-01T09:54:00;100645.34;;;19.72;100.00
13705;BME280;6924;52.122;9.952;2022-08-01T09:56:35;100649.88;;;19.73;100.00
13705;BME280;6924;52.122;9.952;2022-08-01T09:59:02;100647.53;;;19.79;100.00
13705;BME280;6924;52.122;9.952;2022-08-01T10:01:41;100651.22;;;19.79;100.00
13705;BME280;6924;52.122;9.952;2022-08-01T10:04:11;100651.31;;;19.83;100.00
13705;BME280;6924;52.122;9.952;2022-08-01T10:06:39;100660.03;;;19.87;100.00
13705;BME280;6924;52.122;9.952;2022-08-01T10:09:10;100655.56;;;19.89;100.00
13705;BME280;6924;52.122;9.952;2022-08-01T10:11:37;100654.94;;;19.80;100.00
13705;BME280;6924;52.122;9.952;2022-08-01T10:14:04;100649.78;;;19.70;100.00
13705;BME280;6924;52.122;9.952;2022-08-01T10:16:33;100653.63;;;19.77;100.00
13705;BME280;6924;52.122;9.952;2022-08-01T10:19:00;100654.31;;;19.71;100.00
13705;BME280;6924;52.122;9.952;2022-08-01T10:21:27;100658.13;;;19.59;100.00
13705;BME280;6924;52.122;9.952;2022-08-01T10:23:57;100660.72;;;19.48;100.00
13705;BME280;6924;52.122;9.952;2022-08-01T10:26:27;100660.00;;;19.51;100.00
13705;BME280;6924;52.122;9.952;2022-08-01T10:28:55;100658.81;;;19.36;100.00
13705;BME280;6924;52.122;9.952;2022-08-01T10:31:22;100656.03;;;19.40;100.00
13705;BME280;6924;52.122;9.952;2022-08-01T10:33:50;100653.81;;;19.49;100.00
13705;BME280;6924;52.122;9.952;2022-08-01T10:36:19;100650.78;;;19.61;100.00
13705;BME280;6924;52.122;9.952;2022-08-01T10:38:46;100649.44;;;19.71;100.00
13705;BME280;6924;52.122;9.952;2022-08-01T10:41:14;100648.81;;;19.81;100.00
13705;BME280;6924;52.122;9.952;2022-08-01T10:43:42;100654.34;;;19.90;100.00
13705;BME280;6924;52.122;9.952;2022-08-01T10:46:10;100651.41;;;19.87;100.00
13705;BME280;6924;52.122;9.952;2022-08-01T10:48:43;100657.50;;;19.85;100.00
13705;BME280;6924;52.122;9.952;2022-08-01T10:51:11;100657.22;;;19.90;100.00
13705;BME280;6924;52.122;9.952;2022-08-01T10:53:46;100656.47;;;19.93;98.41
13705;BME280;6924;52.122;9.952;2022-08-01T10:56:13;100650.34;;;19.95;100.00
13705;BME280;6924;52.122;9.952;2022-08-01T10:58:46;100650.13;;;20.03;100.00
13705;BME280;6924;52.122;9.952;2022-08-01T11:01:18;100647.78;;;19.90;100.00
13705;BME280;6924;52.122;9.952;2022-08-01T11:03:56;100649.72;;;19.86;99.56
13705;BME280;6924;52.122;9.952;2022-08-01T11:06:34;100650.03;;;19.80;100.00
13705;BME280;6924;52.122;9.952;2022-08-01T11:09:05;100648.22;;;19.72;100.00
13705;BME280;6924;52.122;9.952;2022-08-01T11:12:00;100650.84;;;19.81;98.81
13705;BME280;6924;52.122;9.952;2022-08-01T11:15:15;100663.03;;;19.94;94.02
13705;BME280;6924;52.122;9.952;2022-08-01T11:17:32;100658.13;;;19.94;94.04
13705;BME280;6924;52.122;9.952;2022-08-01T11:20:10;100655.56;;;19.89;97.15
13705;BME280;6924;52.122;9.952;2022-08-01T11:26:14;100661.38;;;19.73;92.16
13705;BME280;6924;52.122;9.952;2022-08-01T11:28:43;100663.25;;;19.85;95.19
13705;BME280;6924;52.122;9.952;2022-08-01T11:31:31;100671.22;;;20.11;96.51
13705;BME280;6924;52.122;9.952;2022-08-01T11:33:59;100662.38;;;20.20;94.90
13705;BME280;6924;52.122;9.952;2022-08-01T11:36:26;100669.97;;;20.32;88.45
13705;BME280;6924;52.122;9.952;2022-08-01T11:39:14;100678.00;;;20.42;86.41
13705;BME280;6924;52.122;9.952;2022-08-01T11:41:42;100667.41;;;20.46;88.84
13705;BME280;6924;52.122;9.952;2022-08-01T11:44:10;100679.97;;;20.38;87.26
13705;BME280;6924;52.122;9.952;2022-08-01T11:46:57;100676.63;;;20.16;88.60
13705;BME280;6924;52.122;9.952;2022-08-01T11:49:27;100678.09;;;20.07;90.94
13705;BME280;6924;52.122;9.952;2022-08-01T11:51:58;100675.13;;;20.22;90.43
13705;BME280;6924;52.122;9.952;2022-08-01T11:54:31;100679.88;;;20.15;90.70
13705;BME280;6924;52.122;9.952;2022-08-01T11:56:59;100676.31;;;20.21;89.10
13705;BME280;6924;52.122;9.952;2022-08-01T11:59:27;100673.22;;;20.30;91.54
13705;BME280;6924;52.122;9.952;2022-08-01T12:01:57;100682.59;;;20.47;89.27
13705;BME280;6924;52.122;9.952;2022-08-01T12:04:23;100676.41;;;20.64;88.84
13705;BME280;6924;52.122;9.952;2022-08-01T12:06:52;100668.03;;;20.78;86.99
13705;BME280;6924;52.122;9.952;2022-08-01T12:09:21;100662.34;;;20.59;82.59
13705;BME280;6924;52.122;9.952;2022-08-01T12:11:48;100668.63;;;20.64;83.97
13705;BME280;6924;52.122;9.952;2022-08-01T12:14:19;100672.41;;;20.69;86.21
13705;BME280;6924;52.122;9.952;2022-08-01T12:16:51;100663.38;;;20.70;87.45
13705;BME280;6924;52.122;9.952;2022-08-01T12:19:21;100664.72;;;20.76;85.16
13705;BME280;6924;52.122;9.952;2022-08-01T12:22:07;100671.13;;;20.89;84.32
13705;BME280;6924;52.122;9.952;2022-08-01T12:24:34;100671.94;;;20.90;85.64
13705;BME280;6924;52.122;9.952;2022-08-01T12:27:01;100666.59;;;20.88;83.32
13705;BME280;6924;52.122;9.952;2022-08-01T12:29:34;100668.44;;;20.77;82.24
13705;BME280;6924;52.122;9.952;2022-08-01T12:32:01;100672.41;;;20.69;84.00
13705;BME280;6924;52.122;9.952;2022-08-01T12:34:30;100667.84;;;20.68;79.90
13705;BME280;6924;52.122;9.952;2022-08-01T12:37:00;100673.66;;;20.71;80.35
13705;BME280;6924;52.122;9.952;2022-08-01T12:39:33;100672.41;;;20.69;80.85
13705;BME280;6924;52.122;9.952;2022-08-01T12:42:00;100667.91;;;20.71;81.46
13705;BME280;6924;52.122;9.952;2022-08-01T12:44:28;100676.41;;;20.87;80.45
13705;BME280;6924;52.122;9.952;2022-08-01T12:46:56;100673.91;;;20.85;80.53
13705;BME280;6924;52.122;9.952;2022-08-01T12:49:22;100675.69;;;20.90;80.15
13705;BME280;6924;52.122;9.952;2022-08-01T12:51:51;100669.97;;;20.94;80.00
13705;BME280;6924;52.122;9.952;2022-08-01T12:54:18;100683.06;;;20.91;79.39
13705;BME280;6924;52.122;9.952;2022-08-01T12:56:44;100670.75;;;20.91;77.96
13705;BME280;6924;52.122;9.952;2022-08-01T12:59:21;100665.75;;;20.88;77.02
13705;BME280;6924;52.122;9.952;2022-08-01T13:01:50;100671.69;;;20.98;80.18
13705;BME280;6924;52.122;9.952;2022-08-01T13:04:17;100675.59;;;21.10;74.63